Zenda, Wisconsin
Current Conditions -  °F | °C
As of 8:55 AM on Saturday 20 Dec 2014 (Local Time) from KBUU Reporting Station
Overcast Overcast  
Wind Chill: 26°   Ceiling: 6500
Heat Index: 26°   Visibility: 10mi
Dew Point: 20°   Wind: 0mph
Humidity: 80%   Direction: NA
Pressure: 30.27"   Gusts: NA
Location:  42.51°N, 88.48°W
Report Text: KBUU 201455Z AUTO 00000KT 10SM SCT041 SCT049 OVC065 M04/M07 A3027 RMK AO2 T10361066
Loading
Personal Weather Stations






























Interactive Weather Map New forecast layout! Learn more

10-Day Weather Forecast

Advertisements
Track Severe Weather on mobile